West Branch, Michigan
Current Conditions -  °F | °C
As of 1:53 AM on Tuesday 21 Oct 2014 (Local Time) from KHTL Reporting Station
Overcast Overcast  
Wind Chill: 41°   Ceiling: 1100
Heat Index: 45°   Visibility: 10mi
Dew Point: 42°   Wind: 7mph
Humidity: 90%   Direction: 350°N
Pressure: 29.92"   Gusts: NA
Location:  44.28°N, 84.24°W
Report Text: KHTL 210553Z AUTO 35006KT 10SM OVC011 07/06 A2992 RMK AO2 SLP135 T00720056 10083 20067 50003
Loading
Personal Weather Stations






























Interactive Weather Map
Tropical Storm Tracking
New forecast layout! Learn more

10-Day Weather Forecast

Advertisements
Track Severe Weather on mobile